Flight Track Log - Related Links

Times and Time Zones

All times are in EST time to prevent confusion due to time zone crossing. See the N158RA flight status page for this flight to view local times or setup timezone preferences in your user account.

Time Position Orientation Groundspeed Altitude Reporting Facility
EST Latitude Longitude Course Direction KTS MPH feet Rate Location/Type
Fri 11:41:38 AM 40.8717 -82.4278 43° Northeast 136 157 2,900  Level Cleveland Center
Fri 11:42:45 AM 40.9000 -82.3964 40° Northeast 128 147 3,000 45 Climbing Cleveland Center
Fri 11:43:00 AM 41.0150 -82.2802 43° Northeast  Level FlightAware Approximate
Fri 11:43:52 AM 40.9308 -82.3603 41° Northeast 124 143 3,000  Level Cleveland Center
Fri 11:44:00 AM 41.0473 -82.2406 43° Northeast  Level FlightAware Approximate
Fri 11:44:47 AM 40.9564 -82.3367 35° Northeast 133 153 3,000  Level Cleveland Center
Fri 11:45:00 AM 41.0795 -82.2010 43° Northeast  Level FlightAware Approximate
Fri 11:45:47 AM 40.9847 -82.3056 40° Northeast 127 146 3,000  Level Cleveland Center
Fri 11:46:00 AM 41.1117 -82.1614 43° Northeast  Level FlightAware Approximate
Fri 11:46:42 AM 41.0006 -82.2722 58° Northeast 127 146 3,100  Level Cleveland Center
Fri 11:47:00 AM 41.1439 -82.1218 43° Northeast  Level FlightAware Approximate
Fri 11:47:43 AM 41.0214 -82.2286 58° Northeast 131 151 3,000  Level Cleveland Center
Fri 11:48:49 AM 41.0428 -82.1822 59° Northeast 131 151 3,000  Level Cleveland Center
Fri 11:49:56 AM 41.0617 -82.1381 60° Northeast 132 152 3,000  Level Cleveland Center
Fri 11:50:45 AM 41.0794 -82.1050 54° Northeast 130 150 3,000  Level Cleveland Center
Fri 11:52:03 AM 41.1092 -82.0572 50° Northeast 130 150 3,000  Level Cleveland Center
Fri 11:52:52 AM 41.1250 -82.0236 58° Northeast 131 151 3,000  Level Cleveland Center
Fri 11:53:53 AM 41.1436 -81.9822 59° Northeast 130 150 3,000  Level Cleveland Center
Fri 11:54:54 AM 41.1644 -81.9411 56° Northeast 129 148 3,000  Level Cleveland Center
Fri 11:55:48 AM 41.1803 -81.9050 60° Northeast 129 148 3,000  Level Cleveland Center
Fri 11:56:49 AM 41.1967 -81.8631 63° Northeast 130 150 3,000  Level Cleveland Center
Fri 11:58:02 AM 41.2183 -81.8111 61° Northeast 134 154 3,000 47 Level Cleveland Center
Fri 11:58:56 AM 41.2342 -81.7775 58° Northeast 130 150 3,100  Climbing Cleveland Center
Fri 12:00:03 PM 41.2569 -81.7339 55° Northeast 128 147 3,000 -49 Descending Cleveland Center
Fri 12:00:58 PM 41.2808 -81.7042 43° Northeast 127 146 3,000  Level Cleveland Center
Fri 12:01:52 PM 41.3042 -81.6772 41° Northeast 128 147 3,000 -52 Level Cleveland Center
Fri 12:02:53 PM 41.3356 -81.6544 29° Northeast 122 140 2,900 -98 Descending Cleveland Center
Fri 12:04:00 PM 41.3694 -81.6735 337° Northwest  Level FlightAware Approximate

Login

Don't have an account? Register now (free) for customized features, flight alerts, and more!